Flight Track Log - Related Links

Times and Time Zones

All times are in EDT time to prevent confusion due to time zone crossing. See the N244A flight status page for this flight to view local times or setup timezone preferences in your user account.

Time Position Orientation Groundspeed Altitude Reporting Facility
EDT Latitude Longitude Course Direction KTS MPH feet Rate Location/Type
Wed 04:42:08 PM 32.8000 -97.3500 180° South 156 180 1,400  Level Dallas / Fort Worth TRACON
Wed 04:42:56 PM 32.7500 -97.3500 180° South 211 243 3,200 2,512 Climbing Dallas / Fort Worth TRACON
Wed 04:44:17 PM 32.7122 -97.3986 227° Southwest 237 273 6,800 2,894 Climbing Fort Worth Center
Wed 04:45:17 PM 32.7833 -97.4108 352° North 174 200 10,000 3,100 Climbing Fort Worth Center
Wed 04:46:17 PM 32.8500 -97.3567 34° Northeast 242 278 13,000 2,700 Climbing Fort Worth Center
Wed 04:47:17 PM 32.9128 -97.2972 38° Northeast 271 312 15,400 2,100 Climbing Fort Worth Center
Wed 04:48:17 PM 32.9878 -97.2350 35° Northeast 314 361 17,200 1,900 Climbing Fort Worth Center
Wed 04:49:17 PM 33.0669 -97.1656 36° Northeast 338 389 19,200 2,200 Climbing Fort Worth Center
Wed 04:50:17 PM 33.1461 -97.0933 37° Northeast 349 402 21,600 1,700 Climbing Fort Worth Center
Wed 04:51:17 PM 33.2294 -97.0211 36° Northeast 354 407 22,600 1,000 Climbing Fort Worth Center
Wed 04:52:17 PM 33.3106 -96.9486 37° Northeast 397 457 23,600 1,100 Climbing Fort Worth Center
Wed 04:53:17 PM 33.4019 -96.8661 37° Northeast 408 470 24,800 1,100 Climbing Fort Worth Center
Wed 04:54:17 PM 33.4978 -96.7931 32° Northeast 408 470 25,800 1,050 Climbing Fort Worth Center
Wed 04:55:17 PM 33.6017 -96.7275 28° Northeast 403 464 26,900 1,100 Climbing Fort Worth Center
Wed 04:56:17 PM 33.7036 -96.6619 28° Northeast 408 470 28,000 1,050 Climbing Fort Worth Center
Wed 04:57:17 PM 33.8056 -96.5961 28° Northeast 413 475 29,000 1,000 Climbing Fort Worth Center
Wed 04:58:17 PM 33.9094 -96.5275 29° Northeast 413 475 30,000 900 Climbing Fort Worth Center
Wed 04:59:17 PM 34.0133 -96.4639 27° Northeast 413 475 30,800 950 Climbing Fort Worth Center
Wed 05:00:17 PM 34.1150 -96.3900 31° Northeast 407 468 31,900 1,000 Climbing Fort Worth Center
Wed 05:01:17 PM 34.2081 -96.3111 35° Northeast 396 456 32,800 800 Climbing Fort Worth Center
Wed 05:02:17 PM 34.3033 -96.2319 34° Northeast 401 461 33,500 750 Climbing Fort Worth Center
Wed 05:03:17 PM 34.4028 -96.1525 33° Northeast 406 467 34,300 650 Climbing Fort Worth Center
Wed 05:04:17 PM 34.4981 -96.0731 34° Northeast 411 473 34,800 350 Climbing Fort Worth Center
Wed 05:05:17 PM 34.5931 -95.9933 35° Northeast 416 479 35,000 100 Climbing Fort Worth Center
Wed 05:06:17 PM 34.6903 -95.9108 35° Northeast 421 484 35,000  Level Fort Worth Center
Wed 05:07:17 PM 34.7933 -95.8281 33° Northeast 421 484 35,000  Level Fort Worth Center
Wed 05:08:17 PM 34.8739 -95.7583 35° Northeast 426 490 35,000  Level Fort Worth Center
Wed 05:09:17 PM 34.9894 -95.6572 36° Northeast 442 509 35,000  Level Fort Worth Center
Wed 05:10:17 PM 35.0925 -95.5689 35° Northeast 447 514 35,000  Level Fort Worth Center
Wed 05:11:17 PM 35.1933 -95.4778 36° Northeast 447 514 35,000  Level Fort Worth Center
Wed 05:12:17 PM 35.2961 -95.3864 36° Northeast 447 514 35,000  Level Fort Worth Center
Wed 05:13:17 PM 35.4008 -95.2947 35° Northeast 447 514 35,000  Level Fort Worth Center
Wed 05:14:20 PM 35.5161 -95.1881 37° Northeast 452 520 35,000  Level Kansas City Center
Wed 05:15:22 PM 35.6183 -95.0950 36° Northeast 455 524 35,000  Level Kansas City Center
Wed 05:16:26 PM 35.7197 -95.0056 36° Northeast 452 520 35,000  Level Memphis Center
Wed 05:17:26 PM 35.8231 -94.9117 36° Northeast 452 520 35,000  Level Memphis Center
Wed 05:18:26 PM 35.9267 -94.8197 36° Northeast 452 520 35,000  Level Memphis Center
Wed 05:19:26 PM 36.0281 -94.7253 37° Northeast 452 520 35,000  Level Memphis Center
Wed 05:20:26 PM 36.1314 -94.6306 37° Northeast 452 520 35,000  Level Memphis Center
Wed 05:21:35 PM 36.2539 -94.5186 36° Northeast 459 528 35,000  Level Kansas City Center
Wed 05:22:37 PM 36.3564 -94.4253 36° Northeast 458 527 35,000  Level Kansas City Center
Wed 05:23:39 PM 36.4583 -94.3317 36° Northeast 458 527 35,000  Level Kansas City Center
Wed 05:24:41 PM 36.5600 -94.2375 37° Northeast 457 526 35,000  Level Kansas City Center
Wed 05:25:43 PM 36.6828 -94.1222 37° Northeast 459 528 35,000  Level Kansas City Center
Wed 05:26:45 PM 36.7858 -94.0269 37° Northeast 460 529 35,000  Level Kansas City Center
Wed 05:27:47 PM 36.8878 -93.9311 37° Northeast 460 529 35,000  Level Kansas City Center
Wed 05:28:49 PM 36.9883 -93.8339 38° Northeast 458 527 35,000  Level Kansas City Center
Wed 05:29:51 PM 37.0856 -93.7397 38° Northeast 460 529 35,000  Level Kansas City Center
Wed 05:30:53 PM 37.2106 -93.6242 36° Northeast 462 532 35,000  Level Kansas City Center
Wed 05:31:55 PM 37.3147 -93.5253 37° Northeast 465 535 35,000  Level Kansas City Center
Wed 05:32:57 PM 37.4189 -93.4253 37° Northeast 468 539 35,000  Level Kansas City Center
Wed 05:33:59 PM 37.5236 -93.3258 37° Northeast 468 539 35,000  Level Kansas City Center
Wed 05:35:01 PM 37.6272 -93.2258 37° Northeast 468 539 35,000  Level Kansas City Center
Wed 05:36:03 PM 37.7317 -93.1256 37° Northeast 468 539 35,000  Level Kansas City Center
Wed 05:37:05 PM 37.8361 -93.0250 37° Northeast 468 539 35,000  Level Kansas City Center
Wed 05:38:07 PM 37.9628 -92.9011 38° Northeast 472 543 35,000  Level Kansas City Center
Wed 05:39:09 PM 38.0700 -92.7969 37° Northeast 477 549 35,000  Level Kansas City Center
Wed 05:40:12 PM 38.1736 -92.6944 38° Northeast 485 558 35,000  Level Kansas City Center
Wed 05:41:13 PM 38.2853 -92.5844 38° Northeast 482 555 35,000  Level Kansas City Center
Wed 05:42:16 PM 38.3931 -92.4789 37° Northeast 482 555 35,000  Level Kansas City Center
Wed 05:43:18 PM 38.5014 -92.3714 38° Northeast 487 560 35,000  Level Kansas City Center
Wed 05:44:20 PM 38.6094 -92.2631 38° Northeast 489 563 35,000  Level Kansas City Center
Wed 05:45:22 PM 38.7164 -92.1561 38° Northeast 487 560 35,000  Level Kansas City Center
Wed 05:46:24 PM 38.8242 -92.0464 38° Northeast 490 564 35,000  Level Kansas City Center
Wed 05:47:26 PM 38.9556 -91.9156 38° Northeast 496 571 35,000  Level Kansas City Center
Wed 05:48:27 PM 39.0647 -91.8033 39° Northeast 498 573 35,000  Level Kansas City Center
Wed 05:49:29 PM 39.1742 -91.6939 38° Northeast 498 573 35,000  Level Kansas City Center
Wed 05:50:31 PM 39.2736 -91.5911 39° Northeast 502 578 35,000  Level Kansas City Center
Wed 05:51:33 PM 39.4069 -91.4544 38° Northeast 506 582 35,000  Level Kansas City Center
Wed 05:52:35 PM 39.5131 -91.3458 38° Northeast 505 581 35,000 -484 Level Kansas City Center
Wed 05:53:37 PM 39.6281 -91.2281 38° Northeast 506 582 34,000 -1,210 Descending Kansas City Center
Wed 05:54:39 PM 39.7436 -91.1064 39° Northeast 521 600 32,500 -1,403 Descending Kansas City Center
Wed 05:55:41 PM 39.8458 -90.9969 39° Northeast 518 596 31,100 -726 Descending Kansas City Center
Wed 05:56:43 PM 39.9767 -90.8617 38° Northeast 509 586 31,000 -97 Descending Kansas City Center
Wed 05:57:45 PM 40.0847 -90.7517 38° Northeast 498 573 30,900  Descending Kansas City Center
Wed 05:58:47 PM 40.1889 -90.6367 40° Northeast 493 567 31,000 48 Climbing Kansas City Center
Wed 05:59:49 PM 40.2964 -90.5253 38° Northeast 491 565 31,000  Level Kansas City Center
Wed 06:00:51 PM 40.4017 -90.4117 39° Northeast 489 563 31,000 -581 Level Kansas City Center
Wed 06:01:53 PM 40.5103 -90.2972 39° Northeast 496 571 29,800 -1,452 Descending Kansas City Center
Wed 06:02:55 PM 40.6372 -90.1586 40° Northeast 518 596 28,000 -1,603 Descending Kansas City Center
Wed 06:04:04 PM 40.7636 -90.0247 39° Northeast 518 596 26,300 -2,153 Descending Chicago Center
Wed 06:05:06 PM 40.8725 -89.9050 40° Northeast 513 590 23,300 -3,339 Descending Chicago Center
Wed 06:06:08 PM 40.9975 -89.7642 40° Northeast 483 556 19,400 -3,194 Descending Chicago Center
Wed 06:07:10 PM 41.0767 -89.6786 39° Northeast 448 516 16,700 -2,081 Descending Chicago Center
Wed 06:08:12 PM 41.1775 -89.5581 42° Northeast 399 459 15,100 -1,161 Descending Chicago Center
Wed 06:09:14 PM 41.2383 -89.4278 58° Northeast 413 475 14,300 -1,403 Descending Chicago Center
Wed 06:10:16 PM 41.2975 -89.2922 60° Northeast 421 484 12,200 -1,597 Descending Chicago Center
Wed 06:11:18 PM 41.3536 -89.1700 59° Northeast 413 475 11,000 -968 Descending Chicago Center
Wed 06:12:20 PM 41.4156 -89.0444 57° Northeast 336 387 10,200 -968 Descending Chicago Center
Wed 06:13:22 PM 41.4581 -88.9525 58° Northeast 296 341 9,000 -1,210 Descending Chicago Center
Wed 06:14:24 PM 41.5017 -88.8592 58° Northeast 297 342 7,700 -1,122 Descending Chicago Center
Wed 06:15:25 PM 41.5433 -88.7650 59° Northeast 296 341 6,700 -829 Descending Chicago Center
Wed 06:16:27 PM 41.5864 -88.6747 57° Northeast 289 333 6,000 -339 Descending Chicago Center
Wed 06:17:29 PM 41.6383 -88.5994 47° Northeast 281 323 6,000 -532 Level Chicago Center
Wed 06:18:31 PM 41.7264 -88.5722 13° North 271 312 4,900 -919 Descending Chicago Center
Wed 06:19:33 PM 41.7967 -88.5886 350° North 259 298 4,100 -435 Descending Chicago Center
Wed 06:20:35 PM 41.8669 -88.6003 353° North 255 293 4,000 -48 Descending Chicago Center
Wed 06:21:37 PM 41.9364 -88.6092 355° North 253 291 4,000 -48 Level Chicago Center
Wed 06:22:39 PM 42.0075 -88.6039 North 255 293 3,900 -484 Descending Chicago Center
Wed 06:23:41 PM 42.0717 -88.5547 30° Northeast 263 303 3,000 -435 Descending Chicago Center
Wed 06:24:43 PM 42.1367 -88.4897 37° Northeast 257 296 3,000  Level Chicago Center
Wed 06:25:45 PM 42.1722 -88.4094 59° Northeast 254 292 3,000  Level Chicago Center
Wed 06:26:47 PM 42.2050 -88.3336 60° Northeast 239 275 3,000  Level Chicago Center
Wed 06:27:49 PM 42.2108 -88.2594 84° East 224 258 3,000 -145 Level Chicago Center
Wed 06:28:51 PM 42.2294 -88.1811 72° East 221 254 2,700 -290 Descending Chicago Center
Wed 06:29:53 PM 42.2603 -88.0881 66° East 224 258 2,400 -145 Descending Chicago Center
Wed 06:30:55 PM 42.2822 -88.0194 67° East 216 249 2,400  Level Chicago Center
Wed 06:31:57 PM 42.2389 -87.9672 138° Southeast 225 259 2,400 -48 Level Chicago Center
Wed 06:32:59 PM 42.1800 -87.9375 159° South 226 260 2,300 -97 Descending Chicago Center
Wed 06:34:00 PM 42.1143 -87.9015 169° South  Level Estimated
Wed 06:41:00 PM 42.1143 -87.9015 169° South  Level Estimated
Wed 06:42:00 PM 42.1143 -87.9015 169° South  Level Estimated
Wed 06:43:00 PM 42.1143 -87.9015 169° South  Level Estimated

Login

Don't have an account? Register now (free) for customized features, flight alerts, and more!